createdAt,value
2018-04-25T00:00:45.276Z,13.03
2018-04-25T00:03:13.716Z,13.03
2018-04-25T00:05:42.185Z,13.00
2018-04-25T00:08:10.616Z,13.04
2018-04-25T00:10:39.043Z,13.00
2018-04-25T00:13:07.544Z,13.06
2018-04-25T00:15:36.004Z,12.98
2018-04-25T00:18:04.445Z,12.98
2018-04-25T00:20:32.946Z,13.02
2018-04-25T00:23:01.368Z,13.05
2018-04-25T00:25:29.816Z,13.06
2018-04-25T00:27:58.300Z,13.04
2018-04-25T00:30:26.722Z,12.95
2018-04-25T00:32:55.138Z,13.03
2018-04-25T00:35:23.619Z,13.01
2018-04-25T00:37:52.044Z,13.05
2018-04-25T00:40:20.461Z,13.00
2018-04-25T00:42:48.964Z,13.07
2018-04-25T00:45:17.420Z,13.18
2018-04-25T00:47:45.873Z,13.10
2018-04-25T00:50:14.352Z,13.12
2018-04-25T00:52:42.812Z,13.07
2018-04-25T00:55:11.264Z,13.10
2018-04-25T00:57:39.772Z,13.06
2018-04-25T01:00:08.227Z,13.07
2018-04-25T01:02:36.677Z,13.08
2018-04-25T01:05:05.172Z,13.11
2018-04-25T01:07:33.616Z,13.09
2018-04-25T01:10:02.073Z,13.03
2018-04-25T01:12:30.576Z,13.01
2018-04-25T01:14:59.008Z,13.15
2018-04-25T01:17:27.477Z,13.13
2018-04-25T01:19:55.981Z,13.09
2018-04-25T01:22:24.436Z,13.10
2018-04-25T01:24:57.248Z,13.21
2018-04-25T01:27:25.704Z,13.20
2018-04-25T01:29:54.161Z,13.21
2018-04-25T01:32:22.672Z,13.19
2018-04-25T01:34:54.633Z,13.32
2018-04-25T01:37:32.692Z,13.28
2018-04-25T01:40:01.145Z,13.26
2018-04-25T01:45:29.395Z,13.18
2018-04-25T01:48:10.439Z,13.20
2018-04-25T01:50:38.896Z,13.23
2018-04-25T01:53:19.205Z,13.24
2018-04-25T01:55:59.352Z,13.20
2018-04-25T01:58:39.538Z,13.16
2018-04-25T02:01:19.612Z,13.09
2018-04-25T02:03:54.621Z,13.18
2018-04-25T02:06:23.045Z,13.09
2018-04-25T02:08:51.557Z,13.11
2018-04-25T02:11:19.965Z,13.10
2018-04-25T02:13:48.380Z,13.11
2018-04-25T02:16:16.800Z,13.15
2018-04-25T02:18:45.252Z,13.17
2018-04-25T02:21:13.680Z,13.11
2018-04-25T02:23:42.099Z,13.22
2018-04-25T02:26:10.548Z,13.14
2018-04-25T02:28:38.964Z,13.20
2018-04-25T02:31:07.384Z,13.18
2018-04-25T02:33:35.860Z,13.14
2018-04-25T02:36:04.284Z,13.27
2018-04-25T02:38:32.730Z,13.21
2018-04-25T02:41:01.202Z,13.25
2018-04-25T02:43:29.616Z,13.25
2018-04-25T02:45:58.037Z,13.15
2018-04-25T02:48:26.488Z,13.19
2018-04-25T02:50:54.913Z,13.31
2018-04-25T02:53:23.357Z,13.27
2018-04-25T02:55:51.820Z,13.29
2018-04-25T02:58:20.248Z,13.29
2018-04-25T03:00:48.915Z,13.27
2018-04-25T03:03:17.397Z,13.25
2018-04-25T03:05:45.821Z,13.32
2018-04-25T03:08:14.252Z,13.32
2018-04-25T03:10:42.716Z,13.37
2018-04-25T03:13:11.141Z,13.32
2018-04-25T03:15:39.572Z,13.41
2018-04-25T03:18:08.039Z,13.42
2018-04-25T03:20:36.456Z,13.46
2018-04-25T03:23:04.878Z,13.44
2018-04-25T03:25:33.346Z,13.38
2018-04-25T03:28:01.760Z,13.44
2018-04-25T03:30:30.184Z,13.41
2018-04-25T03:32:58.644Z,13.50
2018-04-25T03:35:27.065Z,13.47
2018-04-25T03:37:55.485Z,13.56
2018-04-25T03:40:23.944Z,13.55
2018-04-25T03:42:52.370Z,13.62
2018-04-25T03:45:20.820Z,13.56
2018-04-25T03:47:49.287Z,13.56
2018-04-25T03:50:17.712Z,13.60
2018-04-25T03:52:46.143Z,13.68
2018-04-25T03:55:14.623Z,13.65
2018-04-25T03:57:43.036Z,13.62
2018-04-25T04:00:11.472Z,13.64
2018-04-25T04:02:39.948Z,13.73
2018-04-25T04:05:08.376Z,13.68
2018-04-25T04:07:36.808Z,13.69
2018-04-25T04:10:05.268Z,13.68
2018-04-25T04:12:33.684Z,13.65
2018-04-25T04:15:02.108Z,13.72
2018-04-25T04:17:30.567Z,13.72
2018-04-25T04:19:58.990Z,13.82
2018-04-25T04:22:27.489Z,13.80
2018-04-25T04:24:55.990Z,13.78
2018-04-25T04:27:24.384Z,13.80
2018-04-25T04:29:52.807Z,13.82
2018-04-25T04:32:21.305Z,13.80
2018-04-25T04:34:49.748Z,13.81
2018-04-25T04:37:18.166Z,13.76
2018-04-25T04:39:46.628Z,13.79
2018-04-25T04:42:15.064Z,13.83
2018-04-25T04:44:43.493Z,13.79
2018-04-25T04:47:11.956Z,13.87
2018-04-25T04:49:40.388Z,13.92
2018-04-25T04:52:08.811Z,13.92
2018-04-25T04:54:37.272Z,13.96
2018-04-25T04:57:05.730Z,13.99
2018-04-25T04:59:34.148Z,14.02
2018-04-25T05:02:02.612Z,14.05
2018-04-25T05:04:31.068Z,14.06
2018-04-25T05:06:59.508Z,14.12
2018-04-25T05:09:27.972Z,14.10
2018-04-25T05:11:56.405Z,14.09
2018-04-25T05:14:24.826Z,14.12
2018-04-25T05:16:53.288Z,14.15
2018-04-25T05:19:21.696Z,14.19
2018-04-25T05:21:50.107Z,14.15
2018-04-25T05:24:18.599Z,14.18
2018-04-25T05:26:46.988Z,14.23
2018-04-25T05:29:15.408Z,14.27
2018-04-25T05:31:43.880Z,14.24
2018-04-25T05:34:12.348Z,14.22
2018-04-25T05:36:40.748Z,14.26
2018-04-25T05:39:09.200Z,14.24
2018-04-25T05:41:37.612Z,14.24
2018-04-25T05:44:06.029Z,14.23
2018-04-25T05:46:34.490Z,14.23
2018-04-25T05:49:02.900Z,14.29
2018-04-25T05:51:31.340Z,14.38
2018-04-25T05:53:59.792Z,14.33
2018-04-25T05:56:28.200Z,14.40
2018-04-25T05:58:56.609Z,14.47
2018-04-25T06:01:25.069Z,14.50
2018-04-25T06:03:53.488Z,14.53
2018-04-25T06:06:21.903Z,14.58
2018-04-25T06:08:50.397Z,14.67
2018-04-25T06:11:18.806Z,14.72
2018-04-25T06:13:47.241Z,14.82
2018-04-25T06:16:15.805Z,14.95
2018-04-25T06:18:44.733Z,15.01
2018-04-25T06:21:14.027Z,15.14
2018-04-25T06:23:42.512Z,15.31
2018-04-25T06:26:10.936Z,15.38
2018-04-25T06:28:39.360Z,15.58
2018-04-25T06:31:07.816Z,15.66
2018-04-25T06:33:36.240Z,15.76
2018-04-25T06:36:04.667Z,15.55
2018-04-25T06:38:33.128Z,15.48
2018-04-25T06:41:01.549Z,15.49
2018-04-25T06:43:29.971Z,15.47
2018-04-25T06:45:58.452Z,15.35
2018-04-25T06:48:26.882Z,15.22
2018-04-25T06:50:55.299Z,15.19
2018-04-25T06:53:23.760Z,15.18
2018-04-25T06:55:52.176Z,15.17
2018-04-25T06:58:20.596Z,15.15
2018-04-25T07:00:49.074Z,15.18
2018-04-25T07:03:17.476Z,15.08
2018-04-25T07:05:45.896Z,15.10
2018-04-25T07:08:14.366Z,15.13
2018-04-25T07:10:42.818Z,15.21
2018-04-25T07:13:11.239Z,15.28
2018-04-25T07:15:39.714Z,15.33
2018-04-25T07:18:08.149Z,15.39
2018-04-25T07:20:36.589Z,15.36
2018-04-25T07:23:05.065Z,15.30
2018-04-25T07:25:33.476Z,15.34
2018-04-25T07:28:01.885Z,15.28
2018-04-25T07:30:30.551Z,15.33
2018-04-25T07:32:58.968Z,15.32
2018-04-25T07:35:27.462Z,15.36
2018-04-25T07:37:55.953Z,15.30
2018-04-25T07:40:24.372Z,15.30
2018-04-25T07:42:52.801Z,15.26
2018-04-25T07:45:21.248Z,15.26
2018-04-25T07:47:49.668Z,15.17
2018-04-25T07:50:18.084Z,15.19
2018-04-25T07:52:46.548Z,15.17
2018-04-25T07:55:14.976Z,15.17
2018-04-25T07:57:43.459Z,15.17
2018-04-25T08:00:11.865Z,15.16
2018-04-25T08:02:40.291Z,15.11
2018-04-25T08:05:08.708Z,15.05
2018-04-25T08:07:37.152Z,15.06
2018-04-25T08:10:05.567Z,14.87
2018-04-25T08:12:45.904Z,14.80
2018-04-25T08:15:25.983Z,14.63
2018-04-25T08:18:06.132Z,14.48
2018-04-25T08:20:45.268Z,14.40
2018-04-25T08:23:13.748Z,14.27
2018-04-25T08:25:42.161Z,14.11
2018-04-25T08:28:10.578Z,13.87
2018-04-25T08:30:39.033Z,13.68
2018-04-25T08:33:07.449Z,13.48
2018-04-25T08:35:35.864Z,13.31
2018-04-25T08:38:04.345Z,13.28
2018-04-25T08:40:32.760Z,13.27
2018-04-25T08:43:01.168Z,13.31
2018-04-25T08:45:29.617Z,13.35
2018-04-25T08:47:58.029Z,13.40
2018-04-25T08:50:26.452Z,13.46
2018-04-25T08:52:54.906Z,13.56
2018-04-25T08:55:23.316Z,13.68
2018-04-25T08:57:51.724Z,13.96
2018-04-25T09:00:20.180Z,14.26
2018-04-25T09:02:48.585Z,14.45
2018-04-25T09:05:17.019Z,14.51
2018-04-25T09:07:45.472Z,14.80
2018-04-25T09:10:13.889Z,14.98
2018-04-25T09:12:42.296Z,15.10
2018-04-25T09:15:10.936Z,15.30
2018-04-25T09:17:39.331Z,15.46
2018-04-25T09:20:07.732Z,15.55
2018-04-25T09:22:36.204Z,15.56
2018-04-25T09:25:04.812Z,15.31
2018-04-25T09:27:33.248Z,15.35
2018-04-25T09:30:01.795Z,15.22
2018-04-25T09:32:30.200Z,15.40
2018-04-25T09:34:58.605Z,15.27
2018-04-25T09:37:27.077Z,15.18
2018-04-25T09:39:55.512Z,15.04
2018-04-25T09:42:23.925Z,14.96
2018-04-25T09:44:52.367Z,15.38
2018-04-25T09:47:20.772Z,15.66
2018-04-25T09:49:49.212Z,16.05
2018-04-25T09:52:17.667Z,16.17
2018-04-25T09:54:46.067Z,16.28
2018-04-25T09:57:14.478Z,16.53
2018-04-25T09:59:42.934Z,16.50
2018-04-25T10:02:16.960Z,16.15
2018-04-25T10:04:45.408Z,15.74
2018-04-25T10:07:13.818Z,15.29
2018-04-25T10:09:42.228Z,14.89
2018-04-25T10:12:10.702Z,14.48
2018-04-25T10:14:39.116Z,14.08
2018-04-25T10:17:07.580Z,13.99
2018-04-25T10:19:36.016Z,13.91
2018-04-25T10:22:04.434Z,13.96
2018-04-25T10:24:32.852Z,14.18
2018-04-25T10:27:01.308Z,14.67
2018-04-25T10:29:29.712Z,15.04
2018-04-25T10:31:58.176Z,15.45
2018-04-25T10:34:26.613Z,15.63
2018-04-25T10:36:55.027Z,15.67
2018-04-25T10:39:23.473Z,15.66
2018-04-25T10:41:51.984Z,15.87
2018-04-25T10:44:20.426Z,16.06
2018-04-25T10:46:48.836Z,15.96
2018-04-25T10:49:17.283Z,15.90
2018-04-25T10:51:45.700Z,15.83
2018-04-25T10:54:14.113Z,15.49
2018-04-25T10:56:42.561Z,15.84
2018-04-25T10:59:10.989Z,16.11
2018-04-25T11:01:39.412Z,16.68
2018-04-25T11:04:07.855Z,16.67
2018-04-25T11:06:36.296Z,16.43
2018-04-25T11:09:04.734Z,16.54
2018-04-25T11:11:33.186Z,16.72
2018-04-25T11:14:01.606Z,17.01
2018-04-25T11:16:30.032Z,16.81
2018-04-25T11:18:58.488Z,16.48
2018-04-25T11:21:26.902Z,16.20
2018-04-25T11:23:55.327Z,16.36
2018-04-25T11:26:23.792Z,16.19
2018-04-25T11:28:52.199Z,16.10
2018-04-25T11:31:20.613Z,16.52
2018-04-25T11:33:49.080Z,16.44
2018-04-25T11:36:17.492Z,16.43
2018-04-25T11:38:45.908Z,16.30
2018-04-25T11:41:14.429Z,16.43
2018-04-25T11:43:42.824Z,16.52
2018-04-25T11:46:11.235Z,16.85
2018-04-25T11:48:39.700Z,16.88
2018-04-25T11:51:08.119Z,16.82
2018-04-25T11:53:36.532Z,16.62
2018-04-25T11:56:05.006Z,16.52
2018-04-25T11:58:33.416Z,16.36
2018-04-25T12:01:01.835Z,16.55
2018-04-25T12:03:30.280Z,16.65
2018-04-25T12:05:58.696Z,16.45
2018-04-25T12:08:27.107Z,16.36
2018-04-25T12:10:55.572Z,16.12
2018-04-25T12:13:24.080Z,15.97
2018-04-25T12:15:52.440Z,15.83
2018-04-25T12:18:20.889Z,15.88
2018-04-25T12:20:49.311Z,15.86
2018-04-25T12:23:17.735Z,15.99
2018-04-25T12:25:46.201Z,15.87
2018-04-25T12:28:14.616Z,15.68
2018-04-25T12:30:43.029Z,15.72
2018-04-25T12:33:11.481Z,15.62
2018-04-25T12:35:39.892Z,15.60
2018-04-25T12:38:08.308Z,15.67
2018-04-25T12:40:36.763Z,15.67
2018-04-25T12:43:05.197Z,15.83
2018-04-25T12:45:33.613Z,16.10
2018-04-25T12:48:02.074Z,16.06
2018-04-25T12:50:30.479Z,16.13
2018-04-25T12:52:58.896Z,16.15
2018-04-25T12:55:27.359Z,16.13
2018-04-25T12:57:55.785Z,16.28
2018-04-25T13:00:24.228Z,16.04
2018-04-25T13:02:52.704Z,16.17
2018-04-25T13:05:21.113Z,16.02
2018-04-25T13:07:49.515Z,16.05
2018-04-25T13:10:18.005Z,16.00
2018-04-25T13:12:46.436Z,16.07
2018-04-25T13:15:14.852Z,16.02
2018-04-25T13:17:43.304Z,15.99
2018-04-25T13:20:11.720Z,16.00
2018-04-25T13:22:40.152Z,16.09
2018-04-25T13:25:08.612Z,15.88
2018-04-25T13:27:37.027Z,15.75
2018-04-25T13:30:05.460Z,15.67
2018-04-25T13:32:33.914Z,15.48
2018-04-25T13:35:02.320Z,15.42
2018-04-25T13:37:30.728Z,15.26
2018-04-25T13:39:59.184Z,15.21
2018-04-25T13:42:27.588Z,15.16
2018-04-25T13:44:56.034Z,15.34
2018-04-25T13:47:24.473Z,15.44
2018-04-25T13:49:52.875Z,15.53
2018-04-25T13:52:21.285Z,15.55
2018-04-25T13:54:49.728Z,15.57
2018-04-25T13:57:18.132Z,15.68
2018-04-25T13:59:46.548Z,15.53
2018-04-25T14:02:15.013Z,15.61
2018-04-25T14:04:43.431Z,15.60
2018-04-25T14:07:11.848Z,15.85
2018-04-25T14:09:40.298Z,16.06
2018-04-25T14:12:08.708Z,16.22
2018-04-25T14:14:37.108Z,16.15
2018-04-25T14:17:05.555Z,16.26
2018-04-25T14:19:33.962Z,16.36
2018-04-25T14:22:02.366Z,16.33
2018-04-25T14:24:30.817Z,16.46
2018-04-25T14:26:59.233Z,16.24
2018-04-25T14:29:27.640Z,16.32
2018-04-25T14:31:56.100Z,16.21
2018-04-25T14:34:24.509Z,16.15
2018-04-25T14:36:52.920Z,16.31
2018-04-25T14:39:21.383Z,16.36
2018-04-25T14:41:49.796Z,16.20
2018-04-25T14:44:18.211Z,16.34
2018-04-25T14:46:46.655Z,16.47
2018-04-25T14:49:15.069Z,16.49
2018-04-25T14:51:43.463Z,16.44
2018-04-25T14:54:11.919Z,16.32
2018-04-25T14:56:40.318Z,16.21
2018-04-25T14:59:08.728Z,15.95
2018-04-25T15:01:37.193Z,16.13
2018-04-25T15:04:05.588Z,16.34
2018-04-25T15:06:34.000Z,16.31
2018-04-25T15:09:02.449Z,16.22
2018-04-25T15:11:30.876Z,16.28
2018-04-25T15:13:59.292Z,16.50
2018-04-25T15:16:27.756Z,16.65
2018-04-25T15:18:56.160Z,16.63
2018-04-25T15:21:24.557Z,16.80
2018-04-25T15:23:53.024Z,16.89
2018-04-25T15:26:21.449Z,16.72
2018-04-25T15:28:49.860Z,16.74
2018-04-25T15:31:18.332Z,16.74
2018-04-25T15:33:46.744Z,16.76
2018-04-25T15:36:15.161Z,16.64
2018-04-25T15:38:43.618Z,16.65
2018-04-25T15:41:12.035Z,16.57
2018-04-25T15:43:40.431Z,16.57
2018-04-25T15:46:08.895Z,16.59
2018-04-25T15:48:37.332Z,16.54
2018-04-25T15:51:05.743Z,16.59
2018-04-25T15:53:34.223Z,16.61
2018-04-25T15:56:02.652Z,16.59
2018-04-25T15:58:31.063Z,16.54
2018-04-25T16:00:59.509Z,16.44
2018-04-25T16:03:27.924Z,16.36
2018-04-25T16:05:56.350Z,16.34
2018-04-25T16:08:24.812Z,16.30
2018-04-25T16:10:53.224Z,16.21
2018-04-25T16:13:21.635Z,16.20
2018-04-25T16:15:50.084Z,16.36
2018-04-25T16:18:18.524Z,16.34
2018-04-25T16:20:46.924Z,16.38
2018-04-25T16:23:15.380Z,16.24
2018-04-25T16:25:43.793Z,16.20
2018-04-25T16:28:12.207Z,16.12
2018-04-25T16:30:40.681Z,16.06
2018-04-25T16:33:09.103Z,16.03
2018-04-25T16:35:37.586Z,15.80
2018-04-25T16:38:06.022Z,15.64
2018-04-25T16:40:34.438Z,15.60
2018-04-25T16:43:02.865Z,15.48
2018-04-25T16:45:31.352Z,15.49
2018-04-25T16:47:59.764Z,15.47
2018-04-25T16:50:28.237Z,15.43
2018-04-25T16:52:56.688Z,15.39
2018-04-25T16:55:25.104Z,15.33
2018-04-25T16:57:53.528Z,15.29
2018-04-25T17:00:21.984Z,15.23
2018-04-25T17:02:50.411Z,15.25
2018-04-25T17:05:18.821Z,15.25
2018-04-25T17:07:47.296Z,15.24
2018-04-25T17:10:15.713Z,15.38
2018-04-25T17:12:44.143Z,15.23
2018-04-25T17:15:12.608Z,15.19
2018-04-25T17:17:41.020Z,15.12
2018-04-25T17:20:09.447Z,14.90
2018-04-25T17:22:37.917Z,14.76
2018-04-25T17:25:06.357Z,14.56
2018-04-25T17:27:34.781Z,14.43
2018-04-25T17:30:03.313Z,14.43
2018-04-25T17:32:31.729Z,14.41
2018-04-25T17:35:00.136Z,14.22
2018-04-25T17:37:28.624Z,14.18
2018-04-25T17:39:57.041Z,14.19
2018-04-25T17:42:25.449Z,14.20
2018-04-25T17:44:53.907Z,14.09
2018-04-25T17:47:22.318Z,14.06
2018-04-25T17:49:50.765Z,14.05
2018-04-25T17:52:19.231Z,14.02
2018-04-25T17:54:47.655Z,13.97
2018-04-25T17:57:16.069Z,13.94
2018-04-25T17:59:44.516Z,13.99
2018-04-25T18:02:12.933Z,13.96
2018-04-25T18:04:41.348Z,13.92
2018-04-25T18:07:09.812Z,13.88
2018-04-25T18:09:38.232Z,13.88
2018-04-25T18:12:06.641Z,13.81
2018-04-25T18:14:35.090Z,13.83
2018-04-25T18:17:03.588Z,13.68
2018-04-25T18:19:32.000Z,13.66
2018-04-25T18:22:00.492Z,13.60
2018-04-25T18:24:28.913Z,13.61
2018-04-25T18:26:57.332Z,13.47
2018-04-25T18:29:25.773Z,13.29
2018-04-25T18:31:54.188Z,13.18
2018-04-25T18:34:22.612Z,13.15
2018-04-25T18:36:51.083Z,13.09
2018-04-25T18:39:19.532Z,12.99
2018-04-25T18:41:47.956Z,12.92
2018-04-25T18:44:16.420Z,12.86
2018-04-25T18:46:44.837Z,12.94
2018-04-25T18:49:13.259Z,12.84
2018-04-25T18:51:41.719Z,12.86
2018-04-25T18:54:10.149Z,12.70
2018-04-25T18:56:38.589Z,12.74
2018-04-25T18:59:07.050Z,12.79
2018-04-25T19:01:35.477Z,12.67
2018-04-25T19:04:03.894Z,12.67
2018-04-25T19:06:32.397Z,12.61
2018-04-25T19:09:00.809Z,12.74
2018-04-25T19:11:29.228Z,12.81
2018-04-25T19:13:57.809Z,12.80
2018-04-25T19:16:26.236Z,12.78
2018-04-25T19:18:54.656Z,12.85
2018-04-25T19:21:23.132Z,12.71
2018-04-25T19:23:51.548Z,12.61
2018-04-25T19:26:19.968Z,12.62
2018-04-25T19:28:48.422Z,12.57
2018-04-25T19:31:16.837Z,12.48
2018-04-25T19:33:45.251Z,12.46
2018-04-25T19:36:13.704Z,12.46
2018-04-25T19:38:42.121Z,12.40
2018-04-25T19:41:10.537Z,12.40
2018-04-25T19:43:39.004Z,12.41
2018-04-25T19:46:07.433Z,12.36
2018-04-25T19:48:35.853Z,12.37
2018-04-25T19:51:04.309Z,12.29
2018-04-25T19:53:32.719Z,12.23
2018-04-25T19:56:01.144Z,12.15
2018-04-25T19:58:29.599Z,12.15
2018-04-25T20:00:58.017Z,12.06
2018-04-25T20:03:26.432Z,11.96
2018-04-25T20:05:54.889Z,12.02
2018-04-25T20:08:23.323Z,11.90
2018-04-25T20:10:51.764Z,11.93
2018-04-25T20:13:20.259Z,11.99
2018-04-25T20:15:48.675Z,11.97
2018-04-25T20:18:17.097Z,11.96
2018-04-25T20:20:45.626Z,11.83
2018-04-25T20:23:14.042Z,11.79
2018-04-25T20:25:42.472Z,11.75
2018-04-25T20:28:10.940Z,11.68
2018-04-25T20:30:39.361Z,11.64
2018-04-25T20:33:07.784Z,11.66
2018-04-25T20:35:36.253Z,11.60
2018-04-25T20:38:04.693Z,11.60
2018-04-25T20:40:33.119Z,11.53
2018-04-25T20:43:01.600Z,11.60
2018-04-25T20:45:30.031Z,11.53
2018-04-25T20:47:58.448Z,11.44
2018-04-25T20:50:26.907Z,11.42
2018-04-25T20:52:55.340Z,11.38
2018-04-25T20:55:23.762Z,11.32
2018-04-25T20:57:52.216Z,11.19
2018-04-25T21:00:20.636Z,11.08
2018-04-25T21:02:49.048Z,11.12
2018-04-25T21:05:17.734Z,11.20
2018-04-25T21:07:46.144Z,11.30
2018-04-25T21:10:14.573Z,11.36
2018-04-25T21:12:43.024Z,11.32
2018-04-25T21:15:11.436Z,11.24
2018-04-25T21:17:39.869Z,11.19
2018-04-25T21:20:08.329Z,11.16
2018-04-25T21:22:36.748Z,11.17
2018-04-25T21:25:05.166Z,11.12
2018-04-25T21:27:33.633Z,11.11
2018-04-25T21:30:02.071Z,11.02
2018-04-25T21:32:30.496Z,11.08
2018-04-25T21:34:58.946Z,11.02
2018-04-25T21:37:27.358Z,11.06
2018-04-25T21:39:55.770Z,10.91
2018-04-25T21:42:24.215Z,10.92
2018-04-25T21:44:52.626Z,10.72
2018-04-25T21:47:21.036Z,10.61
2018-04-25T21:49:49.511Z,10.35
2018-04-25T21:52:17.937Z,10.19
2018-04-25T21:54:46.340Z,10.14
2018-04-25T21:57:14.792Z,10.15
2018-04-25T21:59:43.192Z,10.14
2018-04-25T22:02:11.600Z,10.13
2018-04-25T22:04:40.068Z,10.04
2018-04-25T22:07:08.482Z,10.00
2018-04-25T22:09:36.900Z,10.01
2018-04-25T22:12:05.355Z,10.00
2018-04-25T22:14:33.781Z,9.91
2018-04-25T22:17:02.212Z,9.96
2018-04-25T22:19:30.688Z,10.02
2018-04-25T22:21:59.117Z,9.96
2018-04-25T22:24:27.517Z,9.94
2018-04-25T22:26:55.976Z,9.87
2018-04-25T22:29:24.396Z,10.00
2018-04-25T22:31:52.800Z,9.87
2018-04-25T22:34:21.244Z,9.86
2018-04-25T22:36:49.657Z,9.84
2018-04-25T22:39:18.064Z,9.88
2018-04-25T22:41:46.577Z,9.89
2018-04-25T22:44:14.944Z,9.93
2018-04-25T22:46:43.353Z,10.02
2018-04-25T22:49:11.809Z,9.98
2018-04-25T22:51:40.220Z,10.00
2018-04-25T22:54:08.632Z,10.12
2018-04-25T22:56:37.085Z,10.20
2018-04-25T22:59:05.496Z,10.25
2018-04-25T23:01:33.913Z,10.28
2018-04-25T23:04:02.373Z,10.25
2018-04-25T23:06:30.788Z,10.20
2018-04-25T23:08:59.197Z,10.18
2018-04-25T23:11:27.663Z,10.07
2018-04-25T23:13:56.068Z,10.03
2018-04-25T23:16:24.480Z,10.05
2018-04-25T23:18:52.965Z,10.10
2018-04-25T23:21:21.380Z,10.07
2018-04-25T23:23:49.793Z,10.09
2018-04-25T23:26:18.256Z,10.11
2018-04-25T23:28:46.672Z,10.11
2018-04-25T23:31:15.083Z,10.17
2018-04-25T23:33:43.544Z,10.12
2018-04-25T23:36:11.961Z,10.17
2018-04-25T23:38:40.371Z,10.23
2018-04-25T23:41:08.856Z,10.29
2018-04-25T23:43:37.273Z,10.26
2018-04-25T23:46:05.700Z,10.38
2018-04-25T23:48:34.163Z,10.36
2018-04-25T23:51:02.579Z,10.33
2018-04-25T23:53:31.024Z,10.39
2018-04-25T23:55:59.501Z,10.38
2018-04-25T23:58:27.913Z,10.38
